Time;durP1;ratioP1;P1;durP2;ratioP2;P2;SDS_P1;SDS_P2;PMS_P1;PMS_P2;Temp;Humidity;BMP_temperature;BMP_pressure;BME280_temperature;BME280_humidity;BME280_pressure;Samples;Min_cycle;Max_cycle;Signal;HPM_P1;HPM_P2
2021/12/12 00:00:02;;;;;;;0.00;0.00;;;;;;;;;;6271502;22;19991;-69
2021/12/12 00:05:42;;;;;;;2.08;1.95;;;;;;;;;;6179914;23;20028;-69
2021/12/12 00:08:08;;;;;;;0.00;0.00;;;;;;;;;;6259728;22;20524;-69
2021/12/12 00:10:34;;;;;;;0.55;0.55;;;;;;;;;;6272248;22;20079;-69
2021/12/12 00:13:02;;;;;;;0.00;0.00;;;;;;;;;;6272018;22;20008;-68
2021/12/12 00:15:27;;;;;;;0.00;0.00;;;;;;;;;;6271848;22;20010;-68
2021/12/12 00:17:53;;;;;;;0.00;0.00;;;;;;;;;;6271626;22;20023;-68
2021/12/12 00:20:19;;;;;;;0.00;0.00;;;;;;;;;;6272663;22;20000;-68
2021/12/12 00:22:45;;;;;;;0.00;0.00;;;;;;;;;;6272222;22;19996;-68
2021/12/12 00:25:10;;;;;;;0.00;0.00;;;;;;;;;;6271881;22;20042;-68
2021/12/12 00:27:36;;;;;;;0.00;0.00;;;;;;;;;;6272262;22;20074;-67
2021/12/12 00:30:03;;;;;;;0.00;0.00;;;;;;;;;;6271513;22;20432;-67
2021/12/12 00:32:29;;;;;;;4.57;2.00;;;;;;;;;;6271972;22;20008;-68
2021/12/12 00:34:58;;;;;;;0.00;0.00;;;;;;;;;;6271651;22;20000;-67
2021/12/12 00:37:23;;;;;;;0.35;0.35;;;;;;;;;;6272346;22;20011;-68
2021/12/12 00:39:52;;;;;;;0.45;0.45;;;;;;;;;;6271661;22;20020;-67
2021/12/12 00:42:26;;;;;;;0.00;0.00;;;;;;;;;;6272487;22;20417;-67
2021/12/12 00:44:54;;;;;;;0.30;0.30;;;;;;;;;;6271200;22;20006;-68
2021/12/12 00:47:19;;;;;;;0.00;0.00;;;;;;;;;;6272389;22;20081;-67
2021/12/12 00:49:45;;;;;;;0.00;0.00;;;;;;;;;;6272148;22;20007;-68
2021/12/12 00:52:11;;;;;;;0.00;0.00;;;;;;;;;;6271971;22;20368;-68
2021/12/12 00:54:37;;;;;;;0.00;0.00;;;;;;;;;;6271931;22;20287;-68
2021/12/12 00:57:04;;;;;;;0.00;0.00;;;;;;;;;;6271367;22;20006;-68
2021/12/12 00:59:30;;;;;;;0.00;0.00;;;;;;;;;;6270486;22;19995;-69
2021/12/12 01:01:55;;;;;;;2.65;2.50;;;;;;;;;;6270801;22;20329;-68
2021/12/12 01:04:24;;;;;;;0.00;0.00;;;;;;;;;;6271814;22;20003;-69
2021/12/12 01:06:51;;;;;;;0.00;0.00;;;;;;;;;;6272868;22;20350;-68
2021/12/12 01:09:20;;;;;;;0.00;0.00;;;;;;;;;;6273595;22;20322;-68
2021/12/12 01:11:47;;;;;;;0.00;0.00;;;;;;;;;;6273954;22;20078;-68
2021/12/12 01:14:14;;;;;;;0.00;0.00;;;;;;;;;;6273640;22;20026;-68
2021/12/12 01:16:41;;;;;;;0.00;0.00;;;;;;;;;;6274226;22;20658;-68
2021/12/12 01:19:10;;;;;;;0.00;0.00;;;;;;;;;;6273620;22;20074;-67
2021/12/12 01:21:38;;;;;;;0.00;0.00;;;;;;;;;;6273870;22;20003;-67
2021/12/12 01:24:10;;;;;;;0.00;0.00;;;;;;;;;;6273525;22;20083;-67
2021/12/12 01:26:37;;;;;;;0.00;0.00;;;;;;;;;;6274044;22;20008;-67
2021/12/12 01:29:03;;;;;;;0.00;0.00;;;;;;;;;;6273548;22;20006;-67
2021/12/12 01:31:32;;;;;;;0.00;0.00;;;;;;;;;;6274123;22;20005;-67
2021/12/12 01:34:10;;;;;;;0.00;0.00;;;;;;;;;;6273263;22;20086;-67
2021/12/12 01:36:52;;;;;;;0.00;0.00;;;;;;;;;;6273419;22;20056;-67
2021/12/12 01:39:18;;;;;;;0.00;0.00;;;;;;;;;;6273010;22;20039;-68
2021/12/12 01:41:50;;;;;;;0.00;0.00;;;;;;;;;;6273939;22;20130;-68
2021/12/12 01:44:27;;;;;;;0.00;0.00;;;;;;;;;;6273020;22;19996;-68
2021/12/12 01:47:03;;;;;;;0.00;0.00;;;;;;;;;;6273686;22;20317;-68
2021/12/12 01:49:29;;;;;;;0.05;0.05;;;;;;;;;;6273847;22;20007;-68
2021/12/12 01:51:56;;;;;;;0.00;0.00;;;;;;;;;;6246027;22;20007;-68
2021/12/12 01:54:26;;;;;;;0.00;0.00;;;;;;;;;;6246178;22;20444;-68
2021/12/12 01:56:54;;;;;;;0.00;0.00;;;;;;;;;;6273817;22;20000;-68
2021/12/12 01:59:25;;;;;;;0.20;0.20;;;;;;;;;;6273890;22;20050;-69
2021/12/12 02:01:53;;;;;;;0.00;0.00;;;;;;;;;;6273778;22;19999;-68
2021/12/12 02:04:44;;;;;;;0.10;0.10;;;;;;;;;;6273019;22;20010;-69
2021/12/12 02:07:10;;;;;;;0.00;0.00;;;;;;;;;;6264799;22;20380;-68
2021/12/12 02:09:36;;;;;;;0.00;0.00;;;;;;;;;;6273636;22;20003;-68
2021/12/12 02:12:04;;;;;;;0.00;0.00;;;;;;;;;;6273081;22;20011;-68
2021/12/12 02:14:32;;;;;;;0.00;0.00;;;;;;;;;;6273119;22;20000;-69
2021/12/12 02:17:04;;;;;;;0.00;0.00;;;;;;;;;;6272922;22;20045;-69
2021/12/12 02:19:38;;;;;;;0.00;0.00;;;;;;;;;;6273725;22;19996;-69
2021/12/12 02:22:31;;;;;;;0.00;0.00;;;;;;;;;;6273067;22;20045;-68
2021/12/12 02:36:05;;;;;;;0.00;0.00;;;;;;;;;;6216150;22;20032;-69
2021/12/12 02:38:32;;;;;;;0.00;0.00;;;;;;;;;;6273021;22;20031;-69
2021/12/12 02:40:59;;;;;;;0.00;0.00;;;;;;;;;;6272664;22;19996;-69
2021/12/12 02:43:26;;;;;;;0.00;0.00;;;;;;;;;;6272973;22;20007;-69
2021/12/12 02:45:54;;;;;;;0.00;0.00;;;;;;;;;;6272898;22;20297;-69
2021/12/12 02:48:24;;;;;;;0.00;0.00;;;;;;;;;;6272604;22;19996;-69
2021/12/12 02:50:50;;;;;;;0.03;0.03;;;;;;;;;;6273158;22;20058;-68
2021/12/12 02:53:21;;;;;;;0.10;0.10;;;;;;;;;;6272741;22;20329;-68
2021/12/12 02:55:48;;;;;;;0.00;0.00;;;;;;;;;;6273217;22;19999;-68
2021/12/12 02:58:14;;;;;;;0.00;0.00;;;;;;;;;;6272330;22;20000;-68
2021/12/12 03:00:45;;;;;;;0.00;0.00;;;;;;;;;;6272815;22;20433;-68
2021/12/12 03:03:12;;;;;;;0.00;0.00;;;;;;;;;;6272260;22;19999;-68
2021/12/12 03:05:41;;;;;;;9.52;8.88;;;;;;;;;;6272943;22;19995;-68
2021/12/12 03:08:07;;;;;;;0.00;0.00;;;;;;;;;;6272746;22;20007;-68
2021/12/12 03:10:33;;;;;;;0.00;0.00;;;;;;;;;;6273460;22;20003;-68
2021/12/12 03:12:59;;;;;;;0.00;0.00;;;;;;;;;;6272407;22;20007;-68
2021/12/12 03:15:26;;;;;;;0.00;0.00;;;;;;;;;;6272799;22;20325;-68
2021/12/12 03:17:53;;;;;;;0.00;0.00;;;;;;;;;;6272928;22;20003;-69
2021/12/12 03:20:24;;;;;;;0.00;0.00;;;;;;;;;;6272251;22;20053;-69
2021/12/12 03:22:55;;;;;;;0.00;0.00;;;;;;;;;;6273175;22;20003;-69
2021/12/12 03:25:21;;;;;;;0.00;0.00;;;;;;;;;;6272404;22;20007;-69
2021/12/12 03:27:46;;;;;;;0.00;0.00;;;;;;;;;;6273040;22;20014;-69
2021/12/12 03:30:11;;;;;;;0.00;0.00;;;;;;;;;;6271810;22;20023;-68
2021/12/12 03:32:37;;;;;;;0.00;0.00;;;;;;;;;;6272257;22;20003;-68
2021/12/12 03:35:04;;;;;;;0.00;0.00;;;;;;;;;;6272026;22;20512;-68
2021/12/12 03:37:30;;;;;;;0.00;0.00;;;;;;;;;;6272955;22;20007;-68
2021/12/12 03:39:56;;;;;;;0.00;0.00;;;;;;;;;;6272847;22;20378;-68
2021/12/12 03:42:22;;;;;;;0.00;0.00;;;;;;;;;;6272485;22;20004;-69
2021/12/12 03:44:48;;;;;;;0.00;0.00;;;;;;;;;;6272429;22;19991;-69
2021/12/12 03:47:34;;;;;;;0.00;0.00;;;;;;;;;;6271966;22;20637;-69
2021/12/12 03:50:01;;;;;;;2.13;2.03;;;;;;;;;;6271064;22;20007;-68
2021/12/12 03:52:26;;;;;;;0.00;0.00;;;;;;;;;;6272624;22;20080;-69
2021/12/12 03:54:53;;;;;;;0.00;0.00;;;;;;;;;;6272223;22;20020;-69
2021/12/12 03:57:19;;;;;;;0.00;0.00;;;;;;;;;;6271738;22;20011;-69
2021/12/12 03:59:45;;;;;;;0.00;0.00;;;;;;;;;;6272839;22;20074;-68
2021/12/12 04:02:10;;;;;;;0.00;0.00;;;;;;;;;;6244645;22;20023;-68
2021/12/12 04:04:37;;;;;;;0.00;0.00;;;;;;;;;;6272137;22;20000;-68
2021/12/12 04:07:04;;;;;;;0.00;0.00;;;;;;;;;;6272003;22;20003;-68
2021/12/12 04:09:32;;;;;;;0.00;0.00;;;;;;;;;;6272697;22;20409;-68
2021/12/12 04:11:59;;;;;;;0.00;0.00;;;;;;;;;;6272535;22;20010;-68
2021/12/12 04:14:25;;;;;;;0.00;0.00;;;;;;;;;;6244472;22;20449;-68
2021/12/12 04:16:51;;;;;;;0.00;0.00;;;;;;;;;;6272130;22;19996;-68
2021/12/12 04:19:17;;;;;;;0.00;0.00;;;;;;;;;;6272257;22;20061;-69
2021/12/12 04:21:42;;;;;;;0.00;0.00;;;;;;;;;;6245538;22;20003;-68
2021/12/12 04:24:08;;;;;;;0.00;0.00;;;;;;;;;;6272169;22;20026;-68
2021/12/12 04:26:38;;;;;;;0.00;0.00;;;;;;;;;;6272498;22;19996;-69
2021/12/12 04:29:09;;;;;;;0.00;0.00;;;;;;;;;;6271502;22;20019;-68
2021/12/12 04:31:36;;;;;;;0.00;0.00;;;;;;;;;;6272182;22;20004;-69
2021/12/12 04:34:02;;;;;;;0.00;0.00;;;;;;;;;;6272374;22;20000;-69
2021/12/12 04:36:31;;;;;;;0.00;0.00;;;;;;;;;;6271710;22;19995;-69
2021/12/12 04:39:00;;;;;;;0.00;0.00;;;;;;;;;;6270541;22;20027;-69
2021/12/12 04:41:26;;;;;;;0.00;0.00;;;;;;;;;;6272480;22;20061;-69
2021/12/12 04:43:51;;;;;;;0.00;0.00;;;;;;;;;;6272546;22;20079;-69
2021/12/12 04:46:23;;;;;;;0.00;0.00;;;;;;;;;;6272261;22;20023;-69
2021/12/12 04:51:56;;;;;;;0.52;0.52;;;;;;;;;;6273160;22;20006;-69
2021/12/12 04:54:30;;;;;;;0.00;0.00;;;;;;;;;;6245570;22;19988;-68
2021/12/12 04:56:59;;;;;;;0.00;0.00;;;;;;;;;;6273044;22;20007;-68
2021/12/12 04:59:33;;;;;;;0.00;0.00;;;;;;;;;;6244872;22;20030;-68
2021/12/12 05:01:58;;;;;;;0.00;0.00;;;;;;;;;;6272786;22;20026;-68
2021/12/12 05:04:26;;;;;;;0.00;0.00;;;;;;;;;;6273337;22;19999;-68
2021/12/12 05:07:07;;;;;;;0.30;0.30;;;;;;;;;;6274110;22;19999;-68
2021/12/12 05:09:34;;;;;;;0.00;0.00;;;;;;;;;;6274169;22;20000;-68
2021/12/12 05:12:06;;;;;;;0.00;0.00;;;;;;;;;;6274462;22;20000;-68
2021/12/12 05:14:34;;;;;;;0.00;0.00;;;;;;;;;;6274158;22;20003;-68
2021/12/12 05:17:02;;;;;;;0.00;0.00;;;;;;;;;;6273906;22;20007;-68
2021/12/12 05:19:28;;;;;;;0.00;0.00;;;;;;;;;;6273535;22;20417;-67
2021/12/12 05:21:59;;;;;;;0.00;0.00;;;;;;;;;;6273338;22;19992;-67
2021/12/12 05:24:26;;;;;;;0.00;0.00;;;;;;;;;;6273411;22;20548;-68
2021/12/12 05:26:56;;;;;;;0.00;0.00;;;;;;;;;;6273527;22;20007;-68
2021/12/12 05:29:23;;;;;;;0.00;0.00;;;;;;;;;;6273790;22;20004;-69
2021/12/12 05:31:50;;;;;;;0.00;0.00;;;;;;;;;;6273731;22;20003;-69
2021/12/12 05:34:17;;;;;;;0.00;0.00;;;;;;;;;;6273708;22;20007;-69
2021/12/12 05:36:43;;;;;;;0.00;0.00;;;;;;;;;;6273441;22;20031;-69
2021/12/12 05:39:09;;;;;;;0.00;0.00;;;;;;;;;;6272926;22;20016;-70
2021/12/12 05:41:34;;;;;;;0.00;0.00;;;;;;;;;;6273896;22;20428;-69
2021/12/12 05:44:00;;;;;;;0.00;0.00;;;;;;;;;;6273993;22;20007;-69
2021/12/12 05:46:25;;;;;;;0.00;0.00;;;;;;;;;;6272527;22;20063;-69
2021/12/12 05:48:51;;;;;;;0.30;0.30;;;;;;;;;;6274199;22;20027;-69
2021/12/12 05:51:20;;;;;;;0.00;0.00;;;;;;;;;;6273143;22;19988;-70
2021/12/12 05:53:45;;;;;;;0.00;0.00;;;;;;;;;;6273777;22;19996;-69
2021/12/12 05:56:10;;;;;;;0.00;0.00;;;;;;;;;;6272821;22;20006;-69
2021/12/12 05:58:36;;;;;;;0.00;0.00;;;;;;;;;;6273903;22;20038;-69
2021/12/12 06:01:06;;;;;;;0.00;0.00;;;;;;;;;;6273206;22;20381;-69
2021/12/12 06:03:33;;;;;;;0.20;0.20;;;;;;;;;;6273857;22;19996;-69
2021/12/12 06:06:02;;;;;;;0.00;0.00;;;;;;;;;;6273220;22;20011;-69
2021/12/12 06:08:28;;;;;;;0.00;0.00;;;;;;;;;;6272926;22;20061;-69
2021/12/12 06:10:54;;;;;;;0.00;0.00;;;;;;;;;;6273826;22;19996;-69
2021/12/12 06:13:21;;;;;;;0.00;0.00;;;;;;;;;;6272962;22;20084;-68
2021/12/12 06:15:49;;;;;;;0.30;0.30;;;;;;;;;;6273053;22;20022;-68
2021/12/12 06:18:14;;;;;;;0.00;0.00;;;;;;;;;;6273250;22;20007;-69
2021/12/12 06:20:41;;;;;;;0.10;0.10;;;;;;;;;;6273779;22;20555;-69
2021/12/12 06:23:08;;;;;;;0.00;0.00;;;;;;;;;;6273866;22;19999;-69
2021/12/12 06:25:33;;;;;;;0.00;0.00;;;;;;;;;;6272447;22;19992;-69
2021/12/12 06:27:59;;;;;;;0.00;0.00;;;;;;;;;;6246208;22;20007;-68
2021/12/12 06:30:24;;;;;;;2.83;2.72;;;;;;;;;;6272397;22;20035;-68
2021/12/12 06:32:50;;;;;;;0.20;0.20;;;;;;;;;;6273266;22;20023;-68
2021/12/12 06:35:16;;;;;;;0.00;0.00;;;;;;;;;;6272862;22;20071;-68
2021/12/12 06:37:42;;;;;;;7.55;7.10;;;;;;;;;;6273577;22;20082;-68
2021/12/12 06:40:09;;;;;;;10.05;3.30;;;;;;;;;;6272890;22;20015;-69
2021/12/12 06:42:34;;;;;;;0.22;0.22;;;;;;;;;;6273099;22;20004;-68
2021/12/12 06:45:00;;;;;;;1.02;1.02;;;;;;;;;;6273418;22;20030;-68
2021/12/12 06:47:27;;;;;;;0.08;0.08;;;;;;;;;;6272359;22;20050;-65
2021/12/12 06:49:55;;;;;;;0.90;0.90;;;;;;;;;;6272943;22;20030;-67
2021/12/12 06:52:20;;;;;;;0.65;0.65;;;;;;;;;;6272786;22;20003;-69
2021/12/12 06:54:46;;;;;;;1.33;0.70;;;;;;;;;;6272777;22;20510;-68
2021/12/12 06:57:12;;;;;;;0.00;0.00;;;;;;;;;;6272612;22;20000;-68
2021/12/12 06:59:38;;;;;;;0.00;0.00;;;;;;;;;;6272313;22;19996;-68
2021/12/12 07:02:05;;;;;;;0.10;0.10;;;;;;;;;;6272758;22;19999;-70
2021/12/12 07:04:31;;;;;;;0.13;0.13;;;;;;;;;;6275927;22;20024;-70
2021/12/12 07:06:57;;;;;;;0.10;0.10;;;;;;;;;;6277299;22;20007;-69
2021/12/12 07:09:23;;;;;;;0.00;0.00;;;;;;;;;;6277233;22;20130;-70
2021/12/12 07:11:48;;;;;;;0.00;0.00;;;;;;;;;;6276351;22;20043;-69
2021/12/12 07:14:15;;;;;;;0.05;0.05;;;;;;;;;;6275063;22;20004;-68
2021/12/12 07:16:40;;;;;;;0.00;0.00;;;;;;;;;;6274257;22;20463;-68
2021/12/12 07:19:06;;;;;;;0.52;0.13;;;;;;;;;;6272854;22;19996;-68
2021/12/12 07:21:32;;;;;;;1.85;0.47;;;;;;;;;;6272579;22;19996;-69
2021/12/12 07:24:02;;;;;;;0.00;0.00;;;;;;;;;;6272419;22;20405;-68
2021/12/12 07:26:27;;;;;;;0.28;0.28;;;;;;;;;;6272284;22;19999;-68
2021/12/12 07:28:53;;;;;;;0.00;0.00;;;;;;;;;;6273109;22;20429;-68
2021/12/12 07:31:20;;;;;;;0.00;0.00;;;;;;;;;;6272024;22;20035;-68
2021/12/12 07:33:48;;;;;;;0.00;0.00;;;;;;;;;;6272912;22;20003;-68
2021/12/12 07:36:15;;;;;;;0.00;0.00;;;;;;;;;;6272714;22;19996;-68
2021/12/12 07:38:45;;;;;;;0.13;0.13;;;;;;;;;;6271344;22;20030;-68
2021/12/12 07:41:12;;;;;;;9.73;0.95;;;;;;;;;;6271589;22;20035;-68
2021/12/12 07:43:37;;;;;;;0.55;0.55;;;;;;;;;;6271172;22;20298;-69
2021/12/12 07:46:03;;;;;;;0.00;0.00;;;;;;;;;;6271096;22;19995;-69
2021/12/12 07:48:28;;;;;;;0.00;0.00;;;;;;;;;;6272053;22;20007;-69
2021/12/12 07:50:55;;;;;;;0.00;0.00;;;;;;;;;;6271243;22;20039;-69
2021/12/12 07:53:22;;;;;;;0.00;0.00;;;;;;;;;;6271351;22;20529;-69
2021/12/12 07:55:48;;;;;;;0.20;0.20;;;;;;;;;;6272712;22;20426;-69
2021/12/12 07:58:14;;;;;;;0.00;0.00;;;;;;;;;;6273725;22;19998;-69
2021/12/12 08:00:41;;;;;;;0.00;0.00;;;;;;;;;;6271984;22;20007;-67
2021/12/12 08:03:07;;;;;;;0.00;0.00;;;;;;;;;;6275636;22;19992;-69
2021/12/12 08:05:33;;;;;;;24.83;22.63;;;;;;;;;;6277246;22;20097;-69
2021/12/12 08:08:00;;;;;;;0.47;0.47;;;;;;;;;;6246876;22;20000;-68
2021/12/12 08:10:26;;;;;;;0.00;0.00;;;;;;;;;;6273456;22;20062;-69
2021/12/12 08:12:51;;;;;;;1.02;1.02;;;;;;;;;;6273536;22;20011;-68
2021/12/12 08:15:17;;;;;;;0.10;0.10;;;;;;;;;;6272816;22;20000;-68
2021/12/12 08:17:42;;;;;;;2.50;1.77;;;;;;;;;;6273037;22;20003;-68
2021/12/12 08:20:09;;;;;;;0.00;0.00;;;;;;;;;;6273167;22;20362;-68
2021/12/12 08:22:35;;;;;;;0.00;0.00;;;;;;;;;;6272803;22;20067;-68
2021/12/12 08:25:01;;;;;;;0.35;0.35;;;;;;;;;;6273030;22;20015;-69
2021/12/12 08:27:27;;;;;;;0.10;0.10;;;;;;;;;;6272350;22;20543;-67
2021/12/12 08:29:52;;;;;;;0.00;0.00;;;;;;;;;;6272533;22;20325;-67
2021/12/12 08:32:17;;;;;;;0.05;0.05;;;;;;;;;;6271641;22;20070;-68
2021/12/12 08:34:43;;;;;;;0.65;0.65;;;;;;;;;;6273045;22;20456;-68
2021/12/12 08:37:08;;;;;;;0.15;0.15;;;;;;;;;;6272889;22;20006;-68
2021/12/12 08:39:34;;;;;;;0.00;0.00;;;;;;;;;;6272389;22;20396;-68
2021/12/12 08:42:00;;;;;;;0.00;0.00;;;;;;;;;;6273271;22;20011;-68
2021/12/12 08:44:27;;;;;;;0.32;0.32;;;;;;;;;;6271897;22;20031;-68
2021/12/12 08:46:53;;;;;;;0.08;0.08;;;;;;;;;;6272363;22;20003;-68
2021/12/12 08:49:20;;;;;;;0.47;0.43;;;;;;;;;;6244070;22;20321;-68
2021/12/12 08:51:48;;;;;;;0.00;0.00;;;;;;;;;;6272498;22;20137;-68
2021/12/12 08:54:15;;;;;;;0.00;0.00;;;;;;;;;;6272639;22;19999;-68
2021/12/12 08:56:47;;;;;;;0.22;0.20;;;;;;;;;;6271759;22;19999;-67
2021/12/12 08:59:17;;;;;;;0.30;0.30;;;;;;;;;;6272449;22;20053;-68
2021/12/12 09:01:43;;;;;;;0.00;0.00;;;;;;;;;;6271571;22;20015;-68
2021/12/12 09:04:08;;;;;;;0.40;0.40;;;;;;;;;;6272626;22;19996;-68
2021/12/12 09:06:36;;;;;;;0.00;0.00;;;;;;;;;;6271426;22;20027;-68
2021/12/12 09:09:01;;;;;;;0.00;0.00;;;;;;;;;;6272143;22;20472;-68
2021/12/12 09:11:29;;;;;;;0.30;0.15;;;;;;;;;;6271724;22;20000;-68
2021/12/12 09:13:57;;;;;;;0.73;0.73;;;;;;;;;;6272564;22;20000;-68
2021/12/12 09:16:29;;;;;;;0.00;0.00;;;;;;;;;;6271440;22;19996;-69
2021/12/12 09:19:00;;;;;;;0.20;0.10;;;;;;;;;;6271753;22;20038;-69
2021/12/12 09:21:48;;;;;;;0.30;0.30;;;;;;;;;;6271683;22;19996;-70
2021/12/12 09:24:43;;;;;;;0.03;0.03;;;;;;;;;;6272747;22;19996;-69
2021/12/12 09:27:10;;;;;;;0.00;0.00;;;;;;;;;;6204492;22;20290;-69
2021/12/12 09:29:37;;;;;;;1.75;1.65;;;;;;;;;;6273677;22;20049;-71
2021/12/12 09:32:05;;;;;;;0.60;0.60;;;;;;;;;;6273954;22;20000;-69
2021/12/12 09:34:33;;;;;;;0.10;0.10;;;;;;;;;;6273400;22;19996;-69
2021/12/12 09:37:01;;;;;;;0.03;0.03;;;;;;;;;;6273733;22;20000;-70
2021/12/12 09:39:32;;;;;;;2.95;1.08;;;;;;;;;;6272487;22;20016;-70
2021/12/12 09:42:24;;;;;;;0.00;0.00;;;;;;;;;;6273758;22;20000;-70
2021/12/12 09:45:03;;;;;;;0.00;0.00;;;;;;;;;;6274074;22;20421;-69
2021/12/12 09:48:15;;;;;;;0.00;0.00;;;;;;;;;;6272245;22;19996;-70
2021/12/12 09:51:16;;;;;;;0.20;0.20;;;;;;;;;;6178671;22;20000;-72
2021/12/12 09:54:00;;;;;;;0.00;0.00;;;;;;;;;;6273248;22;19999;-72
2021/12/12 09:56:37;;;;;;;0.00;0.00;;;;;;;;;;6270994;22;20026;-72
2021/12/12 09:59:03;;;;;;;0.98;0.98;;;;;;;;;;6271907;22;20002;-71
2021/12/12 10:01:30;;;;;;;1.10;0.47;;;;;;;;;;6272490;22;19996;-73
2021/12/12 10:04:14;;;;;;;0.00;0.00;;;;;;;;;;6273814;22;19996;-73
2021/12/12 10:06:52;;;;;;;1.48;1.48;;;;;;;;;;6273060;22;20007;-73
2021/12/12 10:09:21;;;;;;;1.38;1.35;;;;;;;;;;6273662;22;20049;-71
2021/12/12 10:11:46;;;;;;;;;;;;;;;;;;6273759;22;20057;-72
2021/12/12 10:14:14;;;;;;;0.38;0.38;;;;;;;;;;6274976;22;19982;-72
2021/12/12 10:16:39;;;;;;;0.20;0.13;;;;;;;;;;6267646;22;20000;-72
2021/12/12 10:19:13;;;;;;;0.75;0.75;;;;;;;;;;6270610;22;20003;-72
2021/12/12 10:21:47;;;;;;;2.88;1.50;;;;;;;;;;6271536;22;20318;-71
2021/12/12 10:24:28;;;;;;;0.60;0.60;;;;;;;;;;6273001;22;20079;-72
2021/12/12 10:26:56;;;;;;;0.00;0.00;;;;;;;;;;6245788;22;20010;-72
2021/12/12 10:29:26;;;;;;;0.65;0.65;;;;;;;;;;6273043;22;20012;-71
2021/12/12 10:31:57;;;;;;;0.00;0.00;;;;;;;;;;6272599;22;19999;-71
2021/12/12 10:34:28;;;;;;;3.50;3.20;;;;;;;;;;6273606;22;20003;-71
2021/12/12 10:37:08;;;;;;;0.00;0.00;;;;;;;;;;6273305;22;20344;-70
2021/12/12 10:39:43;;;;;;;34.28;15.25;;;;;;;;;;6272456;22;20075;-71
2021/12/12 10:42:11;;;;;;;5.60;5.10;;;;;;;;;;6246213;22;19996;-71
2021/12/12 10:44:48;;;;;;;9.40;8.88;;;;;;;;;;6245014;22;20075;-70
2021/12/12 10:47:32;;;;;;;10.40;9.57;;;;;;;;;;6272858;22;20026;-72
2021/12/12 10:50:10;;;;;;;5.70;4.93;;;;;;;;;;6273268;22;20003;-70
2021/12/12 10:52:56;;;;;;;48.28;23.92;;;;;;;;;;6273525;22;20421;-72
2021/12/12 10:55:30;;;;;;;15.60;11.52;;;;;;;;;;6273204;22;20383;-71
2021/12/12 10:58:15;;;;;;;45.97;30.55;;;;;;;;;;6269359;22;20461;-71
2021/12/12 11:00:45;;;;;;;71.80;42.63;;;;;;;;;;6245434;22;20418;-71
2021/12/12 11:03:19;;;;;;;8.77;7.80;;;;;;;;;;6246772;22;20002;-71
2021/12/12 11:05:47;;;;;;;47.92;25.00;;;;;;;;;;6272314;22;20079;-70
2021/12/12 11:08:45;;;;;;;68.38;52.95;;;;;;;;;;6272661;22;20449;-61
2021/12/12 11:11:19;;;;;;;50.25;17.35;;;;;;;;;;6160603;22;20089;-62
2021/12/12 11:13:53;;;;;;;19.52;12.45;;;;;;;;;;6243510;22;20424;-62
2021/12/12 11:16:25;;;;;;;1.13;1.13;;;;;;;;;;6272681;22;20003;-63
2021/12/12 11:18:58;;;;;;;0.85;0.85;;;;;;;;;;6272514;22;20023;-61
2021/12/12 11:21:34;;;;;;;0.55;0.55;;;;;;;;;;6273103;22;20318;-62
2021/12/12 11:24:01;;;;;;;25.40;6.55;;;;;;;;;;6273087;22;20040;-62
2021/12/12 11:26:34;;;;;;;0.00;0.00;;;;;;;;;;6272671;22;20373;-62
2021/12/12 11:29:01;;;;;;;1.30;0.85;;;;;;;;;;6246134;22;20083;-63
2021/12/12 11:31:32;;;;;;;0.17;0.17;;;;;;;;;;6272621;22;20649;-61
2021/12/12 11:33:58;;;;;;;0.10;0.10;;;;;;;;;;6269305;22;20002;-62
2021/12/12 11:36:29;;;;;;;0.52;0.52;;;;;;;;;;6272436;22;19996;-63
2021/12/12 11:38:58;;;;;;;0.00;0.00;;;;;;;;;;6271981;22;20443;-62
2021/12/12 11:41:26;;;;;;;0.35;0.35;;;;;;;;;;6272174;22;20311;-62
2021/12/12 11:43:56;;;;;;;3.00;2.47;;;;;;;;;;6271587;22;20071;-62
2021/12/12 11:46:49;;;;;;;0.25;0.25;;;;;;;;;;6271474;22;20074;-62
2021/12/12 11:49:27;;;;;;;0.00;0.00;;;;;;;;;;6272098;22;20004;-62
2021/12/12 11:51:55;;;;;;;0.20;0.20;;;;;;;;;;6271202;22;19996;-62
2021/12/12 11:54:23;;;;;;;0.00;0.00;;;;;;;;;;6272658;22;20010;-62
2021/12/12 11:56:51;;;;;;;0.17;0.17;;;;;;;;;;6271855;22;19996;-61
2021/12/12 11:59:25;;;;;;;0.60;0.60;;;;;;;;;;6272457;22;20006;-62
2021/12/12 12:01:56;;;;;;;0.00;0.00;;;;;;;;;;6271829;22;19992;-62
2021/12/12 12:04:24;;;;;;;0.00;0.00;;;;;;;;;;6272507;22;20000;-62
2021/12/12 12:06:59;;;;;;;0.10;0.10;;;;;;;;;;6271819;22;20053;-63
2021/12/12 12:09:37;;;;;;;0.00;0.00;;;;;;;;;;6245073;22;20004;-62
2021/12/12 12:12:06;;;;;;;0.00;0.00;;;;;;;;;;6244475;22;20035;-62
2021/12/12 12:14:39;;;;;;;0.52;0.52;;;;;;;;;;6272205;22;20071;-62
2021/12/12 12:17:05;;;;;;;0.20;0.20;;;;;;;;;;6271993;22;20000;-62
2021/12/12 12:19:45;;;;;;;0.00;0.00;;;;;;;;;;6272041;22;19999;-62
2021/12/12 12:22:33;;;;;;;0.45;0.10;;;;;;;;;;6272868;22;20074;-62
2021/12/12 12:25:15;;;;;;;0.17;0.10;;;;;;;;;;6272920;22;20496;-62
2021/12/12 12:27:43;;;;;;;0.00;0.00;;;;;;;;;;6244516;22;19995;-63
2021/12/12 12:30:27;;;;;;;0.00;0.00;;;;;;;;;;6244945;22;20027;-62
2021/12/12 12:33:11;;;;;;;16.88;2.75;;;;;;;;;;6271494;22;20029;-62
2021/12/12 12:35:39;;;;;;;0.43;0.43;;;;;;;;;;6271817;22;20075;-63
2021/12/12 12:38:22;;;;;;;4.03;3.72;;;;;;;;;;6270558;22;20511;-63
2021/12/12 12:41:06;;;;;;;0.30;0.30;;;;;;;;;;6271474;22;20012;-61
2021/12/12 12:43:34;;;;;;;0.28;0.28;;;;;;;;;;6271453;22;20010;-61
2021/12/12 12:46:18;;;;;;;1.95;0.20;;;;;;;;;;6272345;22;20333;-63
2021/12/12 12:48:45;;;;;;;0.22;0.22;;;;;;;;;;6270712;22;20028;-61
2021/12/12 12:51:15;;;;;;;0.00;0.00;;;;;;;;;;6272140;22;20332;-62
2021/12/12 12:53:40;;;;;;;;;;;;;;;;;;6272291;22;20038;-62
2021/12/12 12:56:23;;;;;;;0.00;0.00;;;;;;;;;;6271569;22;19903;-62
2021/12/12 12:59:01;;;;;;;0.03;0.03;;;;;;;;;;6271796;22;20247;-62
2021/12/12 13:01:44;;;;;;;0.00;0.00;;;;;;;;;;6271812;22;20068;-63
2021/12/12 13:04:21;;;;;;;0.00;0.00;;;;;;;;;;6274348;22;19995;-62
2021/12/12 13:07:01;;;;;;;1.23;1.23;;;;;;;;;;6273677;22;20071;-62
2021/12/12 13:09:35;;;;;;;1.00;0.98;;;;;;;;;;6273492;22;20011;-62
2021/12/12 13:12:16;;;;;;;0.52;0.52;;;;;;;;;;6274337;22;20608;-62
2021/12/12 13:14:47;;;;;;;0.30;0.30;;;;;;;;;;6273372;22;20329;-61
2021/12/12 13:17:15;;;;;;;1.95;1.63;;;;;;;;;;6273738;22;20409;-61
2021/12/12 13:19:49;;;;;;;2.15;1.42;;;;;;;;;;6273470;22;19991;-62
2021/12/12 13:22:25;;;;;;;1.65;1.55;;;;;;;;;;6274213;22;20568;-62
2021/12/12 13:25:11;;;;;;;1.15;1.15;;;;;;;;;;6273429;22;19988;-62
2021/12/12 13:28:15;;;;;;;0.52;0.52;;;;;;;;;;6273407;22;20425;-66
2021/12/12 13:30:58;;;;;;;1.52;1.45;;;;;;;;;;6273913;22;20074;-66
2021/12/12 13:33:42;;;;;;;0.35;0.35;;;;;;;;;;6273060;22;20004;-67
2021/12/12 13:36:14;;;;;;;0.00;0.00;;;;;;;;;;6273975;22;20006;-66
2021/12/12 13:38:45;;;;;;;0.52;0.10;;;;;;;;;;6272153;22;20023;-66
2021/12/12 13:41:36;;;;;;;0.00;0.00;;;;;;;;;;6273822;22;20071;-66
2021/12/12 13:44:16;;;;;;;0.25;0.25;;;;;;;;;;6215066;22;20007;-67
2021/12/12 13:46:44;;;;;;;2.10;2.08;;;;;;;;;;6272834;22;19998;-67
2021/12/12 13:49:09;;;;;;;0.40;0.40;;;;;;;;;;6273925;22;20067;-67
2021/12/12 13:51:38;;;;;;;0.00;0.00;;;;;;;;;;6273694;22;20046;-67
2021/12/12 13:54:03;;;;;;;0.73;0.05;;;;;;;;;;6273714;22;20049;-67
2021/12/12 13:56:37;;;;;;;0.28;0.28;;;;;;;;;;6271032;22;20421;-66
2021/12/12 13:59:21;;;;;;;1.08;1.08;;;;;;;;;;6273447;22;19995;-66
2021/12/12 14:01:52;;;;;;;0.00;0.00;;;;;;;;;;6273021;22;20000;-66
2021/12/12 14:04:23;;;;;;;1.63;1.50;;;;;;;;;;6273822;22;20136;-66
2021/12/12 14:06:49;;;;;;;0.00;0.00;;;;;;;;;;6272415;22;20003;-67
2021/12/12 14:09:17;;;;;;;0.82;0.80;;;;;;;;;;6271898;22;19996;-67
2021/12/12 14:11:45;;;;;;;2.72;1.77;;;;;;;;;;6271986;22;20010;-66
2021/12/12 14:14:19;;;;;;;0.05;0.05;;;;;;;;;;6272845;22;19995;-67
2021/12/12 14:16:47;;;;;;;0.50;0.50;;;;;;;;;;6271894;22;19995;-67
2021/12/12 14:19:14;;;;;;;0.00;0.00;;;;;;;;;;6273313;22;20481;-67
2021/12/12 14:21:42;;;;;;;0.40;0.40;;;;;;;;;;6272979;22;19996;-66
2021/12/12 14:24:07;;;;;;;0.65;0.65;;;;;;;;;;6273438;22;19995;-66
2021/12/12 14:26:34;;;;;;;0.30;0.30;;;;;;;;;;6273323;22;19999;-66
2021/12/12 14:29:03;;;;;;;1.25;1.15;;;;;;;;;;6272459;22;20329;-67
2021/12/12 14:31:35;;;;;;;0.40;0.40;;;;;;;;;;6273707;22;20000;-66
2021/12/12 14:34:03;;;;;;;0.75;0.70;;;;;;;;;;6272279;22;20008;-66
2021/12/12 14:36:41;;;;;;;0.93;0.85;;;;;;;;;;6273400;22;20521;-66
2021/12/12 14:39:07;;;;;;;0.10;0.10;;;;;;;;;;6245345;22;20015;-66
2021/12/12 14:41:36;;;;;;;0.90;0.90;;;;;;;;;;6273094;22;20000;-66
2021/12/12 14:44:05;;;;;;;0.00;0.00;;;;;;;;;;6272308;22;19999;-67
2021/12/12 14:46:40;;;;;;;0.00;0.00;;;;;;;;;;6273557;22;20436;-65
2021/12/12 14:49:10;;;;;;;0.80;0.80;;;;;;;;;;6273164;22;19988;-67
2021/12/12 14:51:38;;;;;;;0.80;0.52;;;;;;;;;;6272343;22;19996;-66
2021/12/12 14:54:09;;;;;;;0.00;0.00;;;;;;;;;;6272515;22;20063;-67
2021/12/12 14:56:37;;;;;;;0.95;0.95;;;;;;;;;;6272858;22;20080;-67
2021/12/12 14:59:08;;;;;;;0.15;0.15;;;;;;;;;;6272525;22;20314;-66
2021/12/12 15:01:42;;;;;;;0.40;0.40;;;;;;;;;;6272851;22;20004;-66
2021/12/12 15:04:15;;;;;;;1.27;1.15;;;;;;;;;;6271643;22;20481;-65
2021/12/12 15:06:46;;;;;;;1.17;0.75;;;;;;;;;;6271196;22;20199;-66
2021/12/12 15:09:14;;;;;;;0.00;0.00;;;;;;;;;;6271480;22;20082;-66
2021/12/12 15:11:41;;;;;;;0.00;0.00;;;;;;;;;;6270156;22;20083;-66
2021/12/12 15:14:14;;;;;;;0.08;0.08;;;;;;;;;;6272280;22;20023;-66
2021/12/12 15:16:40;;;;;;;0.70;0.70;;;;;;;;;;6271452;22;19995;-67